sensor_id;sensor_type;location;lat;lon;timestamp;pressure;altitude;pressure_sealevel;temperature
67599;BMP280;62026;39.230;9.122;2023-01-10T00:00:40;101345.03;;;13.75
67599;BMP280;62026;39.230;9.122;2023-01-10T00:03:10;101338.31;;;13.80
67599;BMP280;62026;39.230;9.122;2023-01-10T00:05:38;101339.34;;;13.79
67599;BMP280;62026;39.230;9.122;2023-01-10T00:08:05;101333.56;;;13.82
67599;BMP280;62026;39.230;9.122;2023-01-10T00:10:33;101340.94;;;13.86
67599;BMP280;62026;39.230;9.122;2023-01-10T00:13:00;101342.59;;;13.81
67599;BMP280;62026;39.230;9.122;2023-01-10T00:15:44;101345.81;;;13.83
67599;BMP280;62026;39.230;9.122;2023-01-10T00:18:11;101347.22;;;13.85
67599;BMP280;62026;39.230;9.122;2023-01-10T00:20:37;101351.53;;;13.86
67599;BMP280;62026;39.230;9.122;2023-01-10T00:23:03;101359.69;;;13.85
67599;BMP280;62026;39.230;9.122;2023-01-10T00:25:30;101355.63;;;13.82
67599;BMP280;62026;39.230;9.122;2023-01-10T00:27:57;101361.34;;;13.86
67599;BMP280;62026;39.230;9.122;2023-01-10T00:30:39;101359.69;;;13.85
67599;BMP280;62026;39.230;9.122;2023-01-10T00:33:07;101356.22;;;13.84
67599;BMP280;62026;39.230;9.122;2023-01-10T00:35:34;101337.06;;;13.75
67599;BMP280;62026;39.230;9.122;2023-01-10T00:38:00;101356.84;;;13.86
67599;BMP280;62026;39.230;9.122;2023-01-10T00:40:33;101359.25;;;13.88
67599;BMP280;62026;39.230;9.122;2023-01-10T00:43:00;101358.16;;;13.70
67599;BMP280;62026;39.230;9.122;2023-01-10T00:45:45;101362.19;;;13.80
67599;BMP280;62026;39.230;9.122;2023-01-10T00:48:13;101372.94;;;13.85
67599;BMP280;62026;39.230;9.122;2023-01-10T00:50:39;101375.81;;;13.83
67599;BMP280;62026;39.230;9.122;2023-01-10T00:53:06;101377.28;;;13.86
67599;BMP280;62026;39.230;9.122;2023-01-10T00:55:34;101390.31;;;13.87
67599;BMP280;62026;39.230;9.122;2023-01-10T00:58:00;101385.41;;;13.84
67599;BMP280;62026;39.230;9.122;2023-01-10T01:00:26;101396.00;;;13.91
67599;BMP280;62026;39.230;9.122;2023-01-10T01:02:53;101387.44;;;13.89
67599;BMP280;62026;39.230;9.122;2023-01-10T01:05:20;101376.06;;;13.75
67599;BMP280;62026;39.230;9.122;2023-01-10T01:07:51;101380.91;;;13.85
67599;BMP280;62026;39.230;9.122;2023-01-10T01:10:18;101374.59;;;13.86
67599;BMP280;62026;39.230;9.122;2023-01-10T01:13:05;101386.19;;;13.91
67599;BMP280;62026;39.230;9.122;2023-01-10T01:15:33;101370.28;;;13.85
67599;BMP280;62026;39.230;9.122;2023-01-10T01:18:00;101371.50;;;13.89
67599;BMP280;62026;39.230;9.122;2023-01-10T01:20:26;101389.47;;;13.93
67599;BMP280;62026;39.230;9.122;2023-01-10T01:22:52;101382.56;;;13.86
67599;BMP280;62026;39.230;9.122;2023-01-10T01:25:18;101385.59;;;13.89
67599;BMP280;62026;39.230;9.122;2023-01-10T01:27:44;101378.44;;;13.90
67599;BMP280;62026;39.230;9.122;2023-01-10T01:30:11;101382.13;;;13.89
67599;BMP280;62026;39.230;9.122;2023-01-10T01:32:38;101368.66;;;13.84
67599;BMP280;62026;39.230;9.122;2023-01-10T01:35:05;101370.50;;;13.83
67599;BMP280;62026;39.230;9.122;2023-01-10T01:37:32;101378.69;;;13.82
67599;BMP280;62026;39.230;9.122;2023-01-10T01:39:58;101389.75;;;13.79
67599;BMP280;62026;39.230;9.122;2023-01-10T01:42:31;101377.47;;;13.78
67599;BMP280;62026;39.230;9.122;2023-01-10T01:50:57;101375.47;;;13.80
67599;BMP280;62026;39.230;9.122;2023-01-10T01:56:16;101353.44;;;13.72
67599;BMP280;62026;39.230;9.122;2023-01-10T01:58:56;101367.50;;;13.80
67599;BMP280;62026;39.230;9.122;2023-01-10T02:01:26;101369.69;;;13.83
67599;BMP280;62026;39.230;9.122;2023-01-10T02:04:07;101374.44;;;13.81
67599;BMP280;62026;39.230;9.122;2023-01-10T02:06:35;101366.88;;;13.78
67599;BMP280;62026;39.230;9.122;2023-01-10T02:09:27;101348.28;;;13.78
67599;BMP280;62026;39.230;9.122;2023-01-10T02:11:55;101342.63;;;13.74
67599;BMP280;62026;39.230;9.122;2023-01-10T02:14:25;101340.19;;;13.72
67599;BMP280;62026;39.230;9.122;2023-01-10T02:16:51;101323.06;;;13.68
67599;BMP280;62026;39.230;9.122;2023-01-10T02:37:13;101336.06;;;13.77
67599;BMP280;62026;39.230;9.122;2023-01-10T02:42:20;101304.50;;;13.68
67599;BMP280;62026;39.230;9.122;2023-01-10T02:45:03;101294.47;;;13.70
67599;BMP280;62026;39.230;9.122;2023-01-10T02:47:41;101275.78;;;13.59
67599;BMP280;62026;39.230;9.122;2023-01-10T02:50:43;101312.03;;;13.71
67599;BMP280;62026;39.230;9.122;2023-01-10T02:53:32;101319.78;;;13.73
67599;BMP280;62026;39.230;9.122;2023-01-10T03:02:18;101303.44;;;13.69
67599;BMP280;62026;39.230;9.122;2023-01-10T03:05:25;101286.31;;;13.72
67599;BMP280;62026;39.230;9.122;2023-01-10T03:11:09;101280.63;;;13.68
67599;BMP280;62026;39.230;9.122;2023-01-10T03:13:51;101291.66;;;13.65
67599;BMP280;62026;39.230;9.122;2023-01-10T03:16:26;101290.41;;;13.68
67599;BMP280;62026;39.230;9.122;2023-01-10T03:19:22;101276.56;;;13.66
67599;BMP280;62026;39.230;9.122;2023-01-10T03:21:53;101280.63;;;13.68
67599;BMP280;62026;39.230;9.122;2023-01-10T03:24:34;101276.97;;;13.63
67599;BMP280;62026;39.230;9.122;2023-01-10T03:27:56;101279.84;;;13.61
67599;BMP280;62026;39.230;9.122;2023-01-10T03:30:29;101270.25;;;13.60
67599;BMP280;62026;39.230;9.122;2023-01-10T03:32:58;101284.94;;;13.63
67599;BMP280;62026;39.230;9.122;2023-01-10T03:35:49;101290.84;;;13.65
67599;BMP280;62026;39.230;9.122;2023-01-10T03:38:34;101290.88;;;13.58
67599;BMP280;62026;39.230;9.122;2023-01-10T03:44:24;101289.66;;;13.61
67599;BMP280;62026;39.230;9.122;2023-01-10T03:47:50;101287.00;;;13.61
67599;BMP280;62026;39.230;9.122;2023-01-10T03:50:24;101290.84;;;13.65
67599;BMP280;62026;39.230;9.122;2023-01-10T03:52:52;101294.94;;;13.61
67599;BMP280;62026;39.230;9.122;2023-01-10T03:55:23;101302.50;;;13.57
67599;BMP280;62026;39.230;9.122;2023-01-10T03:57:50;101305.94;;;13.64
67599;BMP280;62026;39.230;9.122;2023-01-10T04:00:17;101315.34;;;13.60
67599;BMP280;62026;39.230;9.122;2023-01-10T04:02:43;101319.00;;;13.66
67599;BMP280;62026;39.230;9.122;2023-01-10T04:05:10;101304.31;;;13.63
67599;BMP280;62026;39.230;9.122;2023-01-10T04:07:36;101323.50;;;13.65
67599;BMP280;62026;39.230;9.122;2023-01-10T04:10:04;101326.16;;;13.65
67599;BMP280;62026;39.230;9.122;2023-01-10T04:12:31;101329.41;;;13.67
67599;BMP280;62026;39.230;9.122;2023-01-10T04:14:56;101325.94;;;13.67
67599;BMP280;62026;39.230;9.122;2023-01-10T04:17:22;101313.38;;;13.56
67599;BMP280;62026;39.230;9.122;2023-01-10T04:19:48;101325.16;;;13.60
67599;BMP280;62026;39.230;9.122;2023-01-10T04:22:14;101330.84;;;13.63
67599;BMP280;62026;39.230;9.122;2023-01-10T04:24:40;101319.63;;;13.61
67599;BMP280;62026;39.230;9.122;2023-01-10T04:27:08;101326.34;;;13.64
67599;BMP280;62026;39.230;9.122;2023-01-10T04:29:35;101327.16;;;13.64
67599;BMP280;62026;39.230;9.122;2023-01-10T04:32:01;101331.88;;;13.62
67599;BMP280;62026;39.230;9.122;2023-01-10T04:34:27;101346.75;;;13.63
67599;BMP280;62026;39.230;9.122;2023-01-10T04:36:53;101346.16;;;13.61
67599;BMP280;62026;39.230;9.122;2023-01-10T04:39:18;101365.53;;;13.62
67599;BMP280;62026;39.230;9.122;2023-01-10T04:41:44;101378.59;;;13.63
67599;BMP280;62026;39.230;9.122;2023-01-10T04:44:10;101366.78;;;13.59
67599;BMP280;62026;39.230;9.122;2023-01-10T04:46:37;101380.63;;;13.68
67599;BMP280;62026;39.230;9.122;2023-01-10T04:49:03;101386.56;;;13.63
67599;BMP280;62026;39.230;9.122;2023-01-10T04:51:29;101375.75;;;13.58
67599;BMP280;62026;39.230;9.122;2023-01-10T04:53:55;101378.19;;;13.60
67599;BMP280;62026;39.230;9.122;2023-01-10T04:56:22;101371.66;;;13.62
67599;BMP280;62026;39.230;9.122;2023-01-10T04:58:49;101394.31;;;13.65
67599;BMP280;62026;39.230;9.122;2023-01-10T05:01:25;101396.13;;;13.64
67599;BMP280;62026;39.230;9.122;2023-01-10T05:03:54;101390.84;;;13.64
67599;BMP280;62026;39.230;9.122;2023-01-10T05:06:22;101378.59;;;13.63
67599;BMP280;62026;39.230;9.122;2023-01-10T05:08:48;101385.53;;;13.64
67599;BMP280;62026;39.230;9.122;2023-01-10T05:11:14;101384.09;;;13.62
67599;BMP280;62026;39.230;9.122;2023-01-10T05:13:40;101385.34;;;13.59
67599;BMP280;62026;39.230;9.122;2023-01-10T05:16:07;101395.94;;;13.66
67599;BMP280;62026;39.230;9.122;2023-01-10T05:18:33;101380.63;;;13.61
67599;BMP280;62026;39.230;9.122;2023-01-10T05:21:07;101375.97;;;13.57
67599;BMP280;62026;39.230;9.122;2023-01-10T05:23:33;101373.72;;;13.60
67599;BMP280;62026;39.230;9.122;2023-01-10T05:26:10;101388.41;;;13.56
67599;BMP280;62026;39.230;9.122;2023-01-10T05:28:38;101384.31;;;13.60
67599;BMP280;62026;39.230;9.122;2023-01-10T05:31:10;101384.75;;;13.57
67599;BMP280;62026;39.230;9.122;2023-01-10T05:33:37;101394.31;;;13.58
67599;BMP280;62026;39.230;9.122;2023-01-10T05:36:05;101392.28;;;13.60
67599;BMP280;62026;39.230;9.122;2023-01-10T05:38:32;101398.19;;;13.62
67599;BMP280;62026;39.230;9.122;2023-01-10T05:41:00;101407.72;;;13.70
67599;BMP280;62026;39.230;9.122;2023-01-10T05:43:26;101397.75;;;13.65
67599;BMP280;62026;39.230;9.122;2023-01-10T05:45:53;101385.56;;;13.58
67599;BMP280;62026;39.230;9.122;2023-01-10T05:48:19;101351.91;;;13.52
67599;BMP280;62026;39.230;9.122;2023-01-10T05:50:45;101365.75;;;13.60
67599;BMP280;62026;39.230;9.122;2023-01-10T05:53:11;101363.53;;;13.57
67599;BMP280;62026;39.230;9.122;2023-01-10T05:55:37;101350.53;;;13.49
67599;BMP280;62026;39.230;9.122;2023-01-10T05:58:03;101369.25;;;13.54
67599;BMP280;62026;39.230;9.122;2023-01-10T06:00:29;101391.06;;;13.56
67599;BMP280;62026;39.230;9.122;2023-01-10T06:02:56;101355.41;;;13.46
67599;BMP280;62026;39.230;9.122;2023-01-10T06:05:23;101386.41;;;13.52
67599;BMP280;62026;39.230;9.122;2023-01-10T06:07:49;101394.78;;;13.55
67599;BMP280;62026;39.230;9.122;2023-01-10T06:10:16;101393.94;;;13.55
67599;BMP280;62026;39.230;9.122;2023-01-10T06:12:42;101390.84;;;13.58
67599;BMP280;62026;39.230;9.122;2023-01-10T06:15:09;101380.88;;;13.53
67599;BMP280;62026;39.230;9.122;2023-01-10T06:17:35;101384.75;;;13.57
67599;BMP280;62026;39.230;9.122;2023-01-10T06:20:02;101369.63;;;13.58
67599;BMP280;62026;39.230;9.122;2023-01-10T06:22:28;101374.56;;;13.54
67599;BMP280;62026;39.230;9.122;2023-01-10T06:24:54;101369.09;;;13.49
67599;BMP280;62026;39.230;9.122;2023-01-10T06:27:20;101393.72;;;13.56
67599;BMP280;62026;39.230;9.122;2023-01-10T06:29:46;101402.75;;;13.49
67599;BMP280;62026;39.230;9.122;2023-01-10T06:32:12;101414.78;;;13.45
67599;BMP280;62026;39.230;9.122;2023-01-10T06:34:38;101412.13;;;13.45
67599;BMP280;62026;39.230;9.122;2023-01-10T06:37:04;101428.47;;;13.48
67599;BMP280;62026;39.230;9.122;2023-01-10T06:39:30;101431.69;;;13.50
67599;BMP280;62026;39.230;9.122;2023-01-10T06:41:56;101414.19;;;13.43
67599;BMP280;62026;39.230;9.122;2023-01-10T06:44:22;101422.72;;;13.45
67599;BMP280;62026;39.230;9.122;2023-01-10T06:46:48;101431.69;;;13.50
67599;BMP280;62026;39.230;9.122;2023-01-10T06:49:13;101443.50;;;13.54
67599;BMP280;62026;39.230;9.122;2023-01-10T06:51:39;101433.56;;;13.50
67599;BMP280;62026;39.230;9.122;2023-01-10T06:54:05;101429.63;;;13.52
67599;BMP280;62026;39.230;9.122;2023-01-10T06:56:31;101434.56;;;13.55
67599;BMP280;62026;39.230;9.122;2023-01-10T06:58:57;101418.22;;;13.52
67599;BMP280;62026;39.230;9.122;2023-01-10T07:01:23;101439.41;;;13.58
67599;BMP280;62026;39.230;9.122;2023-01-10T07:03:49;101449.19;;;13.64
67599;BMP280;62026;39.230;9.122;2023-01-10T07:06:15;101444.72;;;13.58
67599;BMP280;62026;39.230;9.122;2023-01-10T07:08:44;101450.41;;;13.68
67599;BMP280;62026;39.230;9.122;2023-01-10T07:11:14;101463.63;;;13.75
67599;BMP280;62026;39.230;9.122;2023-01-10T07:13:40;101454.28;;;13.72
67599;BMP280;62026;39.230;9.122;2023-01-10T07:16:10;101457.25;;;13.83
67599;BMP280;62026;39.230;9.122;2023-01-10T07:18:38;101450.50;;;13.93
67599;BMP280;62026;39.230;9.122;2023-01-10T07:21:05;101452.75;;;13.90
67599;BMP280;62026;39.230;9.122;2023-01-10T07:23:31;101482.13;;;13.95
67599;BMP280;62026;39.230;9.122;2023-01-10T07:26:02;101489.63;;;14.11
67599;BMP280;62026;39.230;9.122;2023-01-10T07:28:28;101475.31;;;14.12
67599;BMP280;62026;39.230;9.122;2023-01-10T07:30:58;101495.09;;;14.16
67599;BMP280;62026;39.230;9.122;2023-01-10T07:33:25;101500.31;;;14.29
67599;BMP280;62026;39.230;9.122;2023-01-10T07:35:51;101487.53;;;14.45
67599;BMP280;62026;39.230;9.122;2023-01-10T07:38:16;101484.63;;;14.53
67599;BMP280;62026;39.230;9.122;2023-01-10T07:40:42;101481.97;;;14.53
67599;BMP280;62026;39.230;9.122;2023-01-10T07:43:09;101473.31;;;14.64
67599;BMP280;62026;39.230;9.122;2023-01-10T07:45:35;101470.19;;;14.67
67599;BMP280;62026;39.230;9.122;2023-01-10T07:48:03;101444.91;;;14.64
67599;BMP280;62026;39.230;9.122;2023-01-10T07:50:33;101460.50;;;14.79
67599;BMP280;62026;39.230;9.122;2023-01-10T07:53:01;101464.78;;;14.80
67599;BMP280;62026;39.230;9.122;2023-01-10T07:55:28;101455.13;;;14.86
67599;BMP280;62026;39.230;9.122;2023-01-10T07:57:55;101458.19;;;14.89
67599;BMP280;62026;39.230;9.122;2023-01-10T08:00:21;101470.69;;;15.07
67599;BMP280;62026;39.230;9.122;2023-01-10T08:02:52;101469.09;;;14.99
67599;BMP280;62026;39.230;9.122;2023-01-10T08:05:20;101487.50;;;15.19
67599;BMP280;62026;39.230;9.122;2023-01-10T08:07:46;101485.53;;;15.33
67599;BMP280;62026;39.230;9.122;2023-01-10T08:10:12;101480.34;;;15.38
67599;BMP280;62026;39.230;9.122;2023-01-10T08:12:38;101480.91;;;15.47
67599;BMP280;62026;39.230;9.122;2023-01-10T08:15:04;101487.94;;;15.41
67599;BMP280;62026;39.230;9.122;2023-01-10T08:17:34;101494.41;;;15.45
67599;BMP280;62026;39.230;9.122;2023-01-10T08:20:01;101501.38;;;15.46
67599;BMP280;62026;39.230;9.122;2023-01-10T08:22:27;101494.25;;;15.58
67599;BMP280;62026;39.230;9.122;2023-01-10T08:24:53;101496.91;;;15.58
67599;BMP280;62026;39.230;9.122;2023-01-10T08:27:19;101499.53;;;15.47
67599;BMP280;62026;39.230;9.122;2023-01-10T08:29:45;101491.31;;;15.48
67599;BMP280;62026;39.230;9.122;2023-01-10T08:32:11;101513.84;;;15.64
67599;BMP280;62026;39.230;9.122;2023-01-10T08:34:37;101505.41;;;15.67
67599;BMP280;62026;39.230;9.122;2023-01-10T08:37:03;101485.53;;;15.69
67599;BMP280;62026;39.230;9.122;2023-01-10T08:39:29;101509.47;;;15.69
67599;BMP280;62026;39.230;9.122;2023-01-10T08:41:56;101494.28;;;15.40
67599;BMP280;62026;39.230;9.122;2023-01-10T08:44:22;101503.56;;;15.67
67599;BMP280;62026;39.230;9.122;2023-01-10T08:46:48;101511.31;;;15.69
67599;BMP280;62026;39.230;9.122;2023-01-10T08:49:14;101512.84;;;15.76
67599;BMP280;62026;39.230;9.122;2023-01-10T08:51:40;101503.31;;;15.87
67599;BMP280;62026;39.230;9.122;2023-01-10T08:54:06;101504.72;;;15.90
67599;BMP280;62026;39.230;9.122;2023-01-10T08:56:32;101493.28;;;15.71
67599;BMP280;62026;39.230;9.122;2023-01-10T08:59:00;101504.53;;;15.73
67599;BMP280;62026;39.230;9.122;2023-01-10T09:01:26;101498.22;;;15.86
67599;BMP280;62026;39.230;9.122;2023-01-10T09:03:52;101498.78;;;15.88
67599;BMP280;62026;39.230;9.122;2023-01-10T09:06:18;101501.59;;;15.93
67599;BMP280;62026;39.230;9.122;2023-01-10T09:08:44;101519.97;;;16.12
67599;BMP280;62026;39.230;9.122;2023-01-10T09:11:10;101504.94;;;16.30
67599;BMP280;62026;39.230;9.122;2023-01-10T09:13:36;101525.72;;;16.39
67599;BMP280;62026;39.230;9.122;2023-01-10T09:16:02;101530.00;;;16.40
67599;BMP280;62026;39.230;9.122;2023-01-10T09:18:29;101521.59;;;16.55
67599;BMP280;62026;39.230;9.122;2023-01-10T09:20:55;101524.03;;;16.57
67599;BMP280;62026;39.230;9.122;2023-01-10T09:23:22;101536.31;;;16.81
67599;BMP280;62026;39.230;9.122;2023-01-10T09:25:53;101542.59;;;16.75
67599;BMP280;62026;39.230;9.122;2023-01-10T09:28:21;101540.72;;;16.64
67599;BMP280;62026;39.230;9.122;2023-01-10T09:30:49;101522.63;;;16.66
67599;BMP280;62026;39.230;9.122;2023-01-10T09:33:15;101556.28;;;16.78
67599;BMP280;62026;39.230;9.122;2023-01-10T09:35:42;101537.41;;;16.80
67599;BMP280;62026;39.230;9.122;2023-01-10T09:38:15;101542.53;;;16.52
67599;BMP280;62026;39.230;9.122;2023-01-10T09:44:07;101568.34;;;16.69
67599;BMP280;62026;39.230;9.122;2023-01-10T09:47:07;101544.66;;;16.49
67599;BMP280;62026;39.230;9.122;2023-01-10T09:52:33;101571.09;;;16.63
67599;BMP280;62026;39.230;9.122;2023-01-10T09:57:54;101583.00;;;16.48
67599;BMP280;62026;39.230;9.122;2023-01-10T10:00:30;101579.19;;;16.56
67599;BMP280;62026;39.230;9.122;2023-01-10T10:02:58;101574.84;;;16.85
67599;BMP280;62026;39.230;9.122;2023-01-10T10:05:27;101577.41;;;17.03
67599;BMP280;62026;39.230;9.122;2023-01-10T10:08:01;101570.34;;;16.44
67599;BMP280;62026;39.230;9.122;2023-01-10T10:16:24;101556.50;;;16.54
67599;BMP280;62026;39.230;9.122;2023-01-10T10:25:43;101580.25;;;16.25
67599;BMP280;62026;39.230;9.122;2023-01-10T10:32:17;101585.91;;;15.99
67599;BMP280;62026;39.230;9.122;2023-01-10T10:34:56;101570.41;;;15.96
67599;BMP280;62026;39.230;9.122;2023-01-10T10:37:54;101588.13;;;15.84
67599;BMP280;62026;39.230;9.122;2023-01-10T10:40:32;101569.38;;;15.78
67599;BMP280;62026;39.230;9.122;2023-01-10T10:43:24;101583.38;;;16.04
67599;BMP280;62026;39.230;9.122;2023-01-10T10:46:05;101589.47;;;16.11
67599;BMP280;62026;39.230;9.122;2023-01-10T10:48:52;101573.19;;;15.83
67599;BMP280;62026;39.230;9.122;2023-01-10T10:54:02;101572.72;;;16.04
67599;BMP280;62026;39.230;9.122;2023-01-10T10:56:29;101584.16;;;15.93
67599;BMP280;62026;39.230;9.122;2023-01-10T10:58:58;101575.28;;;15.80
67599;BMP280;62026;39.230;9.122;2023-01-10T11:01:25;101584.88;;;15.82
67599;BMP280;62026;39.230;9.122;2023-01-10T11:04:06;101586.88;;;15.86
67599;BMP280;62026;39.230;9.122;2023-01-10T11:06:35;101581.25;;;15.76
67599;BMP280;62026;39.230;9.122;2023-01-10T11:09:05;101582.75;;;15.72
67599;BMP280;62026;39.230;9.122;2023-01-10T11:11:43;101586.22;;;15.72
67599;BMP280;62026;39.230;9.122;2023-01-10T11:14:12;101562.13;;;15.67
67599;BMP280;62026;39.230;9.122;2023-01-10T11:16:41;101524.25;;;15.65
67599;BMP280;62026;39.230;9.122;2023-01-10T11:21:54;101530.72;;;15.58
67599;BMP280;62026;39.230;9.122;2023-01-10T11:24:49;101528.44;;;15.61
67599;BMP280;62026;39.230;9.122;2023-01-10T11:27:20;101497.59;;;15.54
67599;BMP280;62026;39.230;9.122;2023-01-10T11:29:55;101498.03;;;15.51
67599;BMP280;62026;39.230;9.122;2023-01-10T11:32:38;101492.34;;;15.47
67599;BMP280;62026;39.230;9.122;2023-01-10T11:35:25;101471.97;;;15.41
67599;BMP280;62026;39.230;9.122;2023-01-10T11:38:24;101479.34;;;15.39
67599;BMP280;62026;39.230;9.122;2023-01-10T11:43:33;101478.00;;;15.30
67599;BMP280;62026;39.230;9.122;2023-01-10T11:46:16;101482.59;;;15.41
67599;BMP280;62026;39.230;9.122;2023-01-10T11:48:49;101474.16;;;15.44
67599;BMP280;62026;39.230;9.122;2023-01-10T11:51:59;101470.34;;;15.40
67599;BMP280;62026;39.230;9.122;2023-01-10T11:54:26;101472.75;;;15.41
67599;BMP280;62026;39.230;9.122;2023-01-10T11:56:58;101470.41;;;15.33
67599;BMP280;62026;39.230;9.122;2023-01-10T11:59:26;101443.88;;;15.27
67599;BMP280;62026;39.230;9.122;2023-01-10T12:01:56;101470.03;;;15.30
67599;BMP280;62026;39.230;9.122;2023-01-10T12:04:28;101464.25;;;15.33
67599;BMP280;62026;39.230;9.122;2023-01-10T12:07:02;101451.41;;;15.30
67599;BMP280;62026;39.230;9.122;2023-01-10T12:09:44;101475.78;;;15.27
67599;BMP280;62026;39.230;9.122;2023-01-10T12:12:23;101477.78;;;15.31
67599;BMP280;62026;39.230;9.122;2023-01-10T12:14:52;101459.00;;;15.26
67599;BMP280;62026;39.230;9.122;2023-01-10T12:17:30;101466.34;;;15.31
67599;BMP280;62026;39.230;9.122;2023-01-10T12:20:00;101443.88;;;15.27
67599;BMP280;62026;39.230;9.122;2023-01-10T12:22:42;101467.66;;;15.22
67599;BMP280;62026;39.230;9.122;2023-01-10T12:25:26;101462.81;;;15.19
67599;BMP280;62026;39.230;9.122;2023-01-10T12:27:57;101459.94;;;15.14
67599;BMP280;62026;39.230;9.122;2023-01-10T12:30:33;101457.91;;;15.16
67599;BMP280;62026;39.230;9.122;2023-01-10T12:33:05;101473.66;;;15.17
67599;BMP280;62026;39.230;9.122;2023-01-10T12:35:41;101462.81;;;15.19
67599;BMP280;62026;39.230;9.122;2023-01-10T12:41:09;101440.47;;;15.20
67599;BMP280;62026;39.230;9.122;2023-01-10T12:43:57;101451.56;;;15.17
67599;BMP280;62026;39.230;9.122;2023-01-10T12:46:46;101451.09;;;15.20
67599;BMP280;62026;39.230;9.122;2023-01-10T12:49:24;101451.34;;;15.18
67599;BMP280;62026;39.230;9.122;2023-01-10T12:51:54;101457.00;;;15.22
67599;BMP280;62026;39.230;9.122;2023-01-10T12:54:25;101453.31;;;15.23
67599;BMP280;62026;39.230;9.122;2023-01-10T12:56:53;101454.34;;;15.03
67599;BMP280;62026;39.230;9.122;2023-01-10T12:59:28;101469.00;;;15.13
67599;BMP280;62026;39.230;9.122;2023-01-10T13:02:04;101469.00;;;15.13
67599;BMP280;62026;39.230;9.122;2023-01-10T13:04:35;101481.31;;;15.07
67599;BMP280;62026;39.230;9.122;2023-01-10T13:07:03;101489.06;;;15.08
67599;BMP280;62026;39.230;9.122;2023-01-10T13:09:30;101488.09;;;15.03
67599;BMP280;62026;39.230;9.122;2023-01-10T13:15:23;101501.00;;;14.99
67599;BMP280;62026;39.230;9.122;2023-01-10T13:18:17;101484.63;;;15.02
67599;BMP280;62026;39.230;9.122;2023-01-10T13:20:44;101494.81;;;15.05
67599;BMP280;62026;39.230;9.122;2023-01-10T13:23:33;101498.72;;;15.03
67599;BMP280;62026;39.230;9.122;2023-01-10T13:26:07;101514.91;;;15.01
67599;BMP280;62026;39.230;9.122;2023-01-10T13:28:38;101509.09;;;15.11
67599;BMP280;62026;39.230;9.122;2023-01-10T13:31:22;101504.13;;;15.15
67599;BMP280;62026;39.230;9.122;2023-01-10T13:34:04;101518.06;;;15.17
67599;BMP280;62026;39.230;9.122;2023-01-10T13:39:35;101518.91;;;15.10
67599;BMP280;62026;39.230;9.122;2023-01-10T13:52:53;101554.38;;;15.23
67599;BMP280;62026;39.230;9.122;2023-01-10T14:00:43;101560.09;;;15.01
67599;BMP280;62026;39.230;9.122;2023-01-10T14:03:55;101549.41;;;15.08
67599;BMP280;62026;39.230;9.122;2023-01-10T14:11:55;101571.63;;;15.14
67599;BMP280;62026;39.230;9.122;2023-01-10T14:14:32;101578.59;;;15.15
67599;BMP280;62026;39.230;9.122;2023-01-10T14:17:35;101578.81;;;15.13
67599;BMP280;62026;39.230;9.122;2023-01-10T14:20:15;101578.66;;;15.08
67599;BMP280;62026;39.230;9.122;2023-01-10T14:23:18;101575.78;;;15.09
67599;BMP280;62026;39.230;9.122;2023-01-10T14:25:51;101585.19;;;15.12
67599;BMP280;62026;39.230;9.122;2023-01-10T14:28:25;101583.13;;;15.07
67599;BMP280;62026;39.230;9.122;2023-01-10T14:31:03;101589.09;;;15.09
67599;BMP280;62026;39.230;9.122;2023-01-10T14:33:33;101595.44;;;15.08
67599;BMP280;62026;39.230;9.122;2023-01-10T14:36:23;101593.22;;;15.05
67599;BMP280;62026;39.230;9.122;2023-01-10T14:38:56;101587.88;;;15.05
67599;BMP280;62026;39.230;9.122;2023-01-10T14:41:40;101588.09;;;15.04
67599;BMP280;62026;39.230;9.122;2023-01-10T14:44:12;101609.16;;;15.05
67599;BMP280;62026;39.230;9.122;2023-01-10T14:46:48;101609.88;;;14.94
67599;BMP280;62026;39.230;9.122;2023-01-10T14:49:27;101592.00;;;15.01
67599;BMP280;62026;39.230;9.122;2023-01-10T14:52:12;101594.88;;;15.00
67599;BMP280;62026;39.230;9.122;2023-01-10T14:54:38;101612.25;;;15.02
67599;BMP280;62026;39.230;9.122;2023-01-10T14:57:20;101613.09;;;14.96
67599;BMP280;62026;39.230;9.122;2023-01-10T14:59:47;101621.69;;;14.98
67599;BMP280;62026;39.230;9.122;2023-01-10T15:02:23;101624.56;;;14.97
67599;BMP280;62026;39.230;9.122;2023-01-10T15:05:16;101616.81;;;14.95
67599;BMP280;62026;39.230;9.122;2023-01-10T15:07:43;101628.03;;;14.97
67599;BMP280;62026;39.230;9.122;2023-01-10T15:10:31;101640.50;;;14.97
67599;BMP280;62026;39.230;9.122;2023-01-10T15:13:01;101647.09;;;14.94
67599;BMP280;62026;39.230;9.122;2023-01-10T15:15:37;101639.69;;;14.96
67599;BMP280;62026;39.230;9.122;2023-01-10T15:20:59;101641.16;;;14.92
67599;BMP280;62026;39.230;9.122;2023-01-10T15:23:37;101658.56;;;14.88
67599;BMP280;62026;39.230;9.122;2023-01-10T15:26:11;101667.13;;;14.90
67599;BMP280;62026;39.230;9.122;2023-01-10T15:28:43;101664.47;;;14.90
67599;BMP280;62026;39.230;9.122;2023-01-10T15:31:15;101674.53;;;14.88
67599;BMP280;62026;39.230;9.122;2023-01-10T15:33:49;101674.56;;;14.82
67599;BMP280;62026;39.230;9.122;2023-01-10T15:36:24;101668.41;;;14.88
67599;BMP280;62026;39.230;9.122;2023-01-10T15:38:52;101696.22;;;14.85
67599;BMP280;62026;39.230;9.122;2023-01-10T15:41:22;101689.69;;;14.81
67599;BMP280;62026;39.230;9.122;2023-01-10T15:43:49;101701.94;;;14.82
67599;BMP280;62026;39.230;9.122;2023-01-10T15:46:23;101713.16;;;14.84
67599;BMP280;62026;39.230;9.122;2023-01-10T15:49:00;101713.59;;;14.81
67599;BMP280;62026;39.230;9.122;2023-01-10T15:51:34;101713.00;;;14.79
67599;BMP280;62026;39.230;9.122;2023-01-10T15:54:26;101708.53;;;14.73
67599;BMP280;62026;39.230;9.122;2023-01-10T15:57:02;101705.09;;;14.72
67599;BMP280;62026;39.230;9.122;2023-01-10T15:59:34;101705.47;;;14.69
67599;BMP280;62026;39.230;9.122;2023-01-10T16:04:37;101708.94;;;14.76
67599;BMP280;62026;39.230;9.122;2023-01-10T16:09:58;101722.06;;;14.65
67599;BMP280;62026;39.230;9.122;2023-01-10T16:12:36;101740.69;;;14.65
67599;BMP280;62026;39.230;9.122;2023-01-10T16:15:27;101750.47;;;14.71
67599;BMP280;62026;39.230;9.122;2023-01-10T16:17:53;101768.22;;;14.77